Time;durP1;ratioP1;P1;durP2;ratioP2;P2;SDS_P1;SDS_P2;PMS_P1;PMS_P2;Temp;Humidity;BMP_temperature;BMP_pressure;BME280_temperature;BME280_humidity;BME280_pressure;Samples;Min_cycle;Max_cycle;Signal;HPM_P1;HPM_P2
2024/03/01 00:00:21;;;;;;;9.73;2.28;;;;;;;3.74;88.00;98369.38;5048686;28;20048;-55
2024/03/01 00:02:49;;;;;;;5.10;2.45;;;;;;;3.75;88.14;98370.97;5062993;28;20059;-53
2024/03/01 00:05:17;;;;;;;11.15;2.80;;;;;;;3.78;88.13;98364.78;5054313;28;20618;-56
2024/03/01 00:07:44;;;;;;;10.63;3.45;;;;;;;3.79;88.18;98354.59;5052076;28;20379;-55
2024/03/01 00:10:12;;;;;;;9.80;3.03;;;;;;;3.81;88.00;98358.59;5050693;28;20066;-55
2024/03/01 00:12:39;;;;;;;8.05;3.38;;;;;;;3.84;88.80;98346.91;5045914;28;20091;-55
2024/03/01 00:15:07;;;;;;;10.13;2.53;;;;;;;3.85;88.74;98337.56;5059384;28;20049;-57
2024/03/01 00:17:35;;;;;;;10.57;3.03;;;;;;;3.88;88.70;98331.34;5038614;28;20041;-56
2024/03/01 00:20:03;;;;;;;10.05;2.85;;;;;;;3.90;88.58;98320.03;5060505;28;20052;-54
2024/03/01 00:22:30;;;;;;;8.77;2.90;;;;;;;3.91;88.75;98314.22;5068132;28;20053;-58
2024/03/01 00:24:57;;;;;;;7.97;3.88;;;;;;;3.92;89.09;98299.38;5067939;28;20382;-56
2024/03/01 00:27:24;;;;;;;12.27;2.97;;;;;;;3.93;89.13;98295.50;5067934;28;20052;-54
2024/03/01 00:29:52;;;;;;;6.18;2.65;;;;;;;3.92;89.51;98282.94;5058169;28;20053;-55
2024/03/01 00:32:19;;;;;;;12.88;3.75;;;;;;;3.92;89.49;98277.47;5038610;28;20059;-51
2024/03/01 00:34:47;;;;;;;11.27;2.40;;;;;;;3.92;89.49;98265.75;5065128;28;20048;-54
2024/03/01 00:37:14;;;;;;;11.30;3.30;;;;;;;3.94;89.90;98266.97;5066495;28;20044;-56
2024/03/01 00:39:41;;;;;;;8.35;2.80;;;;;;;3.95;89.82;98260.31;5057245;28;20053;-57
2024/03/01 00:42:08;;;;;;;5.80;1.83;;;;;;;3.97;89.66;98247.06;5054861;28;20049;-57
2024/03/01 00:44:36;;;;;;;7.68;2.20;;;;;;;3.98;89.81;98243.19;5050310;28;20040;-52
2024/03/01 00:47:03;;;;;;;9.85;2.42;;;;;;;4.02;90.17;98235.84;5059201;28;20048;-55
2024/03/01 00:49:30;;;;;;;8.82;2.78;;;;;;;4.04;90.33;98219.84;5067215;28;20048;-53
2024/03/01 00:51:59;;;;;;;11.40;2.10;;;;;;;4.07;90.22;98232.00;5064766;28;20501;-58
2024/03/01 00:54:27;;;;;;;11.57;2.45;;;;;;;4.10;90.57;98226.56;5056030;28;20115;-57
2024/03/01 00:56:54;;;;;;;9.40;1.92;;;;;;;4.12;90.50;98215.28;5047363;28;20048;-55
2024/03/01 00:59:23;;;;;;;9.32;2.55;;;;;;;4.12;90.83;98213.34;5056732;28;20114;-57
2024/03/01 01:01:50;;;;;;;17.17;3.03;;;;;;;4.11;91.24;98200.78;5055458;28;20052;-56
2024/03/01 01:04:18;;;;;;;9.07;2.08;;;;;;;4.11;91.61;98192.59;5049274;28;20045;-55
2024/03/01 01:06:45;;;;;;;2.67;1.27;;;;;;;4.08;91.56;98182.34;5062225;28;20043;-53
2024/03/01 01:09:12;;;;;;;11.93;2.65;;;;;;;4.01;92.07;98171.28;5061743;28;20507;-58
2024/03/01 01:11:40;;;;;;;8.18;1.48;;;;;;;3.99;92.34;98168.13;5066065;28;20044;-58
2024/03/01 01:14:07;;;;;;;10.57;2.22;;;;;;;3.97;92.10;98159.47;5049567;28;20049;-55
2024/03/01 01:16:35;;;;;;;3.92;1.77;;;;;;;3.94;92.47;98153.94;5066956;28;20060;-54
2024/03/01 01:19:02;;;;;;;13.00;2.10;;;;;;;3.91;92.95;98144.53;5057091;28;20052;-57
2024/03/01 01:21:32;;;;;;;3.80;1.65;;;;;;;3.90;92.63;98136.66;5036057;28;20494;-57
2024/03/01 01:24:00;;;;;;;6.78;2.47;;;;;;;3.87;93.08;98127.22;5038050;28;20049;-52
2024/03/01 01:26:27;;;;;;;7.00;1.67;;;;;;;3.86;93.09;98116.66;5054509;28;20071;-55
2024/03/01 01:28:55;;;;;;;6.38;1.30;;;;;;;3.83;93.45;98109.97;5054952;28;20053;-57
2024/03/01 01:31:23;;;;;;;7.38;2.20;;;;;;;3.83;93.56;98092.75;5044522;28;20060;-57
2024/03/01 01:33:51;;;;;;;3.13;1.20;;;;;;;3.83;93.59;98085.34;5031350;28;20052;-52
2024/03/01 01:36:19;;;;;;;9.30;1.60;;;;;;;3.83;93.92;98085.34;5044195;28;20045;-58
2024/03/01 01:38:46;;;;;;;6.75;1.63;;;;;;;3.85;94.07;98087.72;5043384;28;20585;-56
2024/03/01 01:41:13;;;;;;;5.82;1.50;;;;;;;3.85;94.43;98085.75;5046511;28;20052;-55
2024/03/01 01:43:43;;;;;;;10.15;2.70;;;;;;;3.88;94.42;98073.28;5037992;28;20056;-55
2024/03/01 01:46:15;;;;;;;5.90;1.55;;;;;;;3.88;94.23;98067.81;5045780;28;20055;-56
2024/03/01 01:48:43;;;;;;;13.85;2.58;;;;;;;3.89;94.73;98070.19;5041459;28;20041;-53
2024/03/01 01:51:16;;;;;;;5.68;1.63;;;;;;;3.88;94.97;98051.41;5046214;28;20049;-56
2024/03/01 01:53:44;;;;;;;5.40;1.13;;;;;;;3.88;95.11;98054.13;5047096;28;20121;-53
2024/03/01 01:56:13;;;;;;;4.38;0.90;;;;;;;3.86;95.63;98027.16;5047518;28;20048;-57
2024/03/01 01:58:43;;;;;;;4.43;1.13;;;;;;;3.87;96.24;98025.97;5044374;28;20045;-54
2024/03/01 02:01:10;;;;;;;7.45;1.38;;;;;;;3.87;96.31;98017.75;5038639;28;20075;-55
2024/03/01 02:03:38;;;;;;;4.50;0.80;;;;;;;3.88;96.59;97997.47;5030327;28;20099;-56
2024/03/01 02:06:06;;;;;;;2.80;0.95;;;;;;;3.87;96.65;97984.13;5025958;28;20058;-56
2024/03/01 02:08:35;;;;;;;4.22;0.50;;;;;;;3.86;96.86;97977.88;5030641;28;20547;-54
2024/03/01 02:11:03;;;;;;;4.00;0.95;;;;;;;3.87;97.13;97973.97;5036561;28;20048;-58
2024/03/01 02:13:30;;;;;;;2.33;0.55;;;;;;;3.90;97.12;97962.28;5035091;28;20051;-57
2024/03/01 02:15:59;;;;;;;5.57;0.85;;;;;;;3.92;97.35;97959.22;5030113;28;20045;-57
2024/03/01 02:18:27;;;;;;;2.75;0.52;;;;;;;3.95;97.36;97937.34;5036551;28;20046;-57
2024/03/01 02:20:59;;;;;;;9.07;1.23;;;;;;;3.98;97.44;97941.28;5030602;28;20042;-56
2024/03/01 02:23:27;;;;;;;4.22;0.93;;;;;;;4.03;98.20;97938.22;5036753;28;20080;-53
2024/03/01 02:25:55;;;;;;;7.22;1.00;;;;;;;4.04;98.28;97928.88;5043801;28;20053;-54
2024/03/01 02:28:22;;;;;;;4.32;0.70;;;;;;;4.04;98.32;97928.88;5031970;28;20052;-56
2024/03/01 02:30:51;;;;;;;7.40;1.73;;;;;;;4.02;98.06;97926.50;5030344;28;20060;-54
2024/03/01 02:33:20;;;;;;;9.32;0.88;;;;;;;4.01;98.71;97922.19;5027119;28;20057;-52
2024/03/01 02:35:48;;;;;;;6.22;0.60;;;;;;;4.00;98.87;97906.13;5036055;28;20056;-56
2024/03/01 02:38:15;;;;;;;4.10;0.90;;;;;;;3.98;98.74;97903.75;5033240;28;20053;-54
2024/03/01 02:40:43;;;;;;;3.10;1.10;;;;;;;3.98;99.46;97903.75;5032299;28;20049;-57
2024/03/01 02:43:11;;;;;;;4.93;0.82;;;;;;;3.98;99.46;97898.28;5033261;28;20059;-56
2024/03/01 02:45:38;;;;;;;3.28;0.75;;;;;;;3.95;99.71;97899.03;5027925;28;20057;-59
2024/03/01 02:48:06;;;;;;;5.07;2.03;;;;;;;3.90;100.00;97893.88;5019211;28;20048;-53
2024/03/01 02:50:34;;;;;;;5.35;1.42;;;;;;;3.85;100.00;97877.78;5032235;28;20048;-54
2024/03/01 02:53:02;;;;;;;7.30;0.65;;;;;;;3.84;100.00;97869.94;5038504;28;20099;-56
2024/03/01 02:55:29;;;;;;;6.18;1.02;;;;;;;3.80;100.00;97853.47;5031689;28;20053;-54
2024/03/01 02:57:57;;;;;;;7.82;1.10;;;;;;;3.82;100.00;97856.63;5031066;28;20124;-54
2024/03/01 03:02:53;;;;;;;7.90;0.80;;;;;;;3.84;100.00;97832.41;5037125;23;20060;-56
2024/03/01 03:05:21;;;;;;;1.92;0.90;;;;;;;3.83;100.00;97835.53;5048021;28;20494;-57
2024/03/01 03:07:48;;;;;;;4.60;1.42;;;;;;;3.80;100.00;97823.38;5046579;28;20037;-59
2024/03/01 03:10:16;;;;;;;3.65;0.70;;;;;;;3.77;100.00;97804.97;5050246;28;20056;-58
2024/03/01 03:12:44;;;;;;;5.28;1.00;;;;;;;3.76;100.00;97806.13;5047698;28;20060;-55
2024/03/01 03:15:13;;;;;;;8.57;1.17;;;;;;;3.75;100.00;97790.88;5028975;28;20060;-59
2024/03/01 03:17:41;;;;;;;8.30;1.60;;;;;;;3.76;100.00;97786.97;5047044;28;20360;-57
2024/03/01 03:20:11;;;;;;;11.43;3.58;;;;;;;3.78;100.00;97776.44;5049808;28;20497;-56
2024/03/01 03:22:45;;;;;;;10.20;1.15;;;;;;;3.79;100.00;97769.81;5043773;28;20048;-60
2024/03/01 03:25:13;;;;;;;5.88;1.70;;;;;;;3.79;100.00;97764.34;5047995;28;20395;-57
2024/03/01 03:27:42;;;;;;;5.13;1.00;;;;;;;3.82;100.00;97762.78;5047522;28;20057;-57
2024/03/01 03:30:11;;;;;;;3.97;0.90;;;;;;;3.82;100.00;97746.38;5044570;28;20045;-58
2024/03/01 03:32:38;;;;;;;2.72;0.80;;;;;;;3.81;100.00;97751.09;5041750;28;20036;-59
2024/03/01 03:35:06;;;;;;;8.45;1.65;;;;;;;3.81;100.00;97745.63;5050750;28;20052;-56
2024/03/01 03:37:33;;;;;;;9.02;1.02;;;;;;;3.77;100.00;97742.03;5030658;28;20044;-56
2024/03/01 03:40:13;;;;;;;5.22;0.60;;;;;;;3.75;100.00;97727.94;5044598;28;20049;-56
2024/03/01 03:42:41;;;;;;;8.43;1.30;;;;;;;3.71;100.00;97707.19;5052181;28;20053;-59
2024/03/01 03:45:10;;;;;;;7.60;1.70;;;;;;;3.68;100.00;97711.44;5046813;28;20052;-54
2024/03/01 03:47:37;;;;;;;13.63;1.10;;;;;;;3.67;100.00;97696.19;5041737;28;20045;-55
2024/03/01 03:50:07;;;;;;;5.75;0.82;;;;;;;3.66;100.00;97689.13;5043689;28;20037;-56
2024/03/01 03:52:36;;;;;;;3.05;0.82;;;;;;;3.65;100.00;97679.38;5023456;28;20041;-55
2024/03/01 03:55:05;;;;;;;10.02;0.88;;;;;;;3.64;100.00;97683.25;5027989;28;20072;-55
2024/03/01 03:57:33;;;;;;;3.90;0.68;;;;;;;3.63;100.00;97663.31;5039947;28;20049;-58
2024/03/01 04:00:03;;;;;;;4.22;0.77;;;;;;;3.65;100.00;97662.97;5044608;28;20045;-57
2024/03/01 04:02:31;;;;;;;8.60;1.27;;;;;;;3.68;100.00;97653.97;5046772;28;20057;-57
2024/03/01 04:04:58;;;;;;;10.73;1.52;;;;;;;3.71;100.00;97650.50;5047985;28;20040;-57
2024/03/01 04:07:25;;;;;;;8.85;1.00;;;;;;;3.72;100.00;97649.34;5046418;28;20045;-56
2024/03/01 04:09:53;;;;;;;7.88;0.77;;;;;;;3.69;100.00;97634.47;5046157;28;20049;-56
2024/03/01 04:12:21;;;;;;;10.57;2.30;;;;;;;3.65;100.00;97641.06;5047126;28;20045;-57
2024/03/01 04:14:48;;;;;;;8.90;1.40;;;;;;;3.64;100.00;97636.75;5044206;28;20528;-56
2024/03/01 04:17:15;;;;;;;9.10;0.98;;;;;;;3.63;100.00;97618.75;5040809;28;20050;-57
2024/03/01 04:19:43;;;;;;;9.85;1.30;;;;;;;3.61;100.00;97619.16;5051185;28;20511;-58
2024/03/01 04:22:13;;;;;;;11.13;1.30;;;;;;;3.64;100.00;97623.09;5044768;28;20045;-57
2024/03/01 04:24:42;;;;;;;6.50;0.90;;;;;;;3.64;100.00;97609.41;5051784;28;20048;-59
2024/03/01 04:27:11;;;;;;;7.53;1.25;;;;;;;3.67;100.00;97627.81;5046760;28;20052;-58
2024/03/01 04:29:39;;;;;;;5.35;0.90;;;;;;;3.67;100.00;97608.66;5047511;28;20044;-59
2024/03/01 04:32:09;;;;;;;5.75;1.20;;;;;;;3.70;100.00;97613.38;5042719;28;20033;-59
2024/03/01 04:34:37;;;;;;;6.63;1.25;;;;;;;3.73;100.00;97612.63;5047190;28;20414;-59
2024/03/01 04:37:04;;;;;;;14.13;3.47;;;;;;;3.77;100.00;97610.69;5051345;28;20049;-59
2024/03/01 04:39:32;;;;;;;14.95;2.88;;;;;;;3.81;100.00;97603.34;5049564;28;20056;-58
2024/03/01 04:42:00;;;;;;;16.33;4.45;;;;;;;3.84;100.00;97618.22;5039060;28;20406;-59
2024/03/01 04:44:27;;;;;;;13.50;4.05;;;;;;;3.84;100.00;97615.47;5046077;28;20045;-59
2024/03/01 04:46:56;;;;;;;21.00;6.50;;;;;;;3.83;100.00;97613.88;5033800;28;20038;-58
2024/03/01 04:49:23;;;;;;;20.15;5.65;;;;;;;3.83;100.00;97611.94;5047505;28;20592;-57
2024/03/01 04:51:50;;;;;;;16.88;4.18;;;;;;;3.85;100.00;97611.56;5045268;28;20044;-58
2024/03/01 04:54:18;;;;;;;10.63;2.78;;;;;;;3.88;100.00;97613.53;5029705;28;20057;-58
2024/03/01 04:56:46;;;;;;;6.72;1.95;;;;;;;3.90;100.00;97609.25;5042077;28;20387;-58
2024/03/01 04:59:14;;;;;;;10.35;2.55;;;;;;;3.92;100.00;97609.66;5046165;28;20067;-58
2024/03/01 05:01:42;;;;;;;19.23;3.47;;;;;;;3.95;100.00;97613.59;5042118;28;20406;-55
2024/03/01 05:04:10;;;;;;;8.20;2.92;;;;;;;3.98;100.00;97599.94;5046426;28;20037;-57
2024/03/01 05:06:37;;;;;;;6.32;2.60;;;;;;;3.99;100.00;97612.47;5046349;28;20329;-57
2024/03/01 05:09:07;;;;;;;10.82;3.13;;;;;;;3.99;100.00;97600.75;5044389;28;20406;-58
2024/03/01 05:11:35;;;;;;;11.13;3.47;;;;;;;3.97;100.00;97600.34;5043888;28;20037;-57
2024/03/01 05:14:03;;;;;;;7.75;3.50;;;;;;;3.97;100.00;97595.63;5042729;28;20041;-57
2024/03/01 05:16:31;;;;;;;8.57;1.67;;;;;;;3.96;100.00;97598.75;5047551;28;20116;-58
2024/03/01 05:18:58;;;;;;;9.13;1.42;;;;;;;3.96;100.00;97605.03;5059134;28;20139;-56
2024/03/01 05:21:26;;;;;;;8.23;1.38;;;;;;;3.94;100.00;97601.88;5047371;28;20060;-55
2024/03/01 05:23:53;;;;;;;8.15;0.93;;;;;;;3.94;100.00;97609.31;5046819;28;20049;-53
2024/03/01 05:26:20;;;;;;;2.53;0.85;;;;;;;3.94;100.00;97617.50;5045523;28;20055;-57
2024/03/01 05:28:48;;;;;;;4.80;0.88;;;;;;;3.91;100.00;97602.63;5029066;28;20049;-55
2024/03/01 05:31:16;;;;;;;2.85;0.50;;;;;;;3.89;100.00;97618.63;5048788;28;20297;-57
2024/03/01 05:33:52;;;;;;;8.20;1.63;;;;;;;3.87;100.00;97604.53;5041370;28;20052;-56
2024/03/01 05:36:19;;;;;;;2.58;0.80;;;;;;;3.85;100.00;97608.81;5049020;28;20064;-59
2024/03/01 05:38:47;;;;;;;9.75;1.33;;;;;;;3.83;100.00;97616.63;5046246;28;20053;-57
2024/03/01 05:41:14;;;;;;;8.85;2.65;;;;;;;3.81;100.00;97622.47;5046843;28;20041;-60
2024/03/01 05:43:42;;;;;;;7.32;1.17;;;;;;;3.75;100.00;97599.34;5044800;28;20068;-57
2024/03/01 05:46:16;;;;;;;12.43;1.52;;;;;;;3.72;100.00;97613.78;5053800;28;20032;-58
2024/03/01 05:48:44;;;;;;;9.10;1.27;;;;;;;3.67;100.00;97590.31;5058507;28;20045;-57
2024/03/01 05:51:11;;;;;;;4.47;1.60;;;;;;;3.65;100.00;97589.88;5046736;28;20056;-55
2024/03/01 05:53:41;;;;;;;9.98;1.40;;;;;;;3.62;100.00;97584.38;5040770;28;20048;-58
2024/03/01 05:56:17;;;;;;;5.78;1.13;;;;;;;3.58;100.00;97584.34;5045022;28;20054;-57
2024/03/01 05:58:46;;;;;;;5.65;0.77;;;;;;;3.53;100.00;97575.69;5048975;28;20044;-54
2024/03/01 06:01:16;;;;;;;4.05;1.15;;;;;;;3.44;100.00;97578.72;5039420;28;20060;-56
2024/03/01 06:03:44;;;;;;;7.00;1.20;;;;;;;3.40;100.00;97571.66;5045633;28;20060;-55
2024/03/01 06:06:15;;;;;;;3.25;0.73;;;;;;;3.34;100.00;97563.00;5042751;28;20049;-55
2024/03/01 06:08:42;;;;;;;5.80;1.02;;;;;;;3.29;100.00;97555.13;5049050;28;20059;-54
2024/03/01 06:11:10;;;;;;;2.75;0.63;;;;;;;3.29;100.00;97548.88;5045650;28;20053;-55
2024/03/01 06:13:38;;;;;;;6.90;1.45;;;;;;;3.32;100.00;97548.13;5045803;28;20525;-57
2024/03/01 06:16:06;;;;;;;23.80;2.08;;;;;;;3.35;100.00;97553.63;5045813;28;20049;-57
2024/03/01 06:18:34;;;;;;;7.13;1.40;;;;;;;3.36;100.00;97554.44;5045417;28;20534;-56
2024/03/01 06:21:02;;;;;;;7.63;1.63;;;;;;;3.38;100.00;97547.44;5029554;28;20427;-57
2024/03/01 06:23:31;;;;;;;9.98;2.17;;;;;;;3.42;100.00;97561.13;5044041;28;20046;-57
2024/03/01 06:25:58;;;;;;;5.30;0.70;;;;;;;3.46;100.00;97556.47;5048526;28;20056;-55
2024/03/01 06:28:26;;;;;;;2.35;0.98;;;;;;;3.37;100.00;97564.97;5036342;28;20049;-56
2024/03/01 06:30:53;;;;;;;0.60;0.50;;;;;;;3.26;100.00;97585.16;5047914;28;20045;-57
2024/03/01 06:33:21;;;;;;;2.03;0.32;;;;;;;3.01;100.00;97572.00;5042381;28;20053;-55
2024/03/01 06:35:48;;;;;;;0.40;0.30;;;;;;;2.90;100.00;97595.69;5018168;28;20466;-57
2024/03/01 06:38:16;;;;;;;0.88;0.70;;;;;;;2.79;100.00;97585.78;5045849;28;20328;-58
2024/03/01 06:40:43;;;;;;;0.70;0.70;;;;;;;2.69;100.00;97603.59;5044932;28;20045;-56
2024/03/01 06:43:10;;;;;;;1.08;1.05;;;;;;;2.61;100.00;97601.13;5050532;28;20037;-56
2024/03/01 06:45:38;;;;;;;1.65;1.08;;;;;;;2.54;100.00;97612.75;5045071;28;20060;-57
2024/03/01 06:48:05;;;;;;;2.65;1.48;;;;;;;2.41;100.00;97612.16;5047839;28;20045;-56
2024/03/01 06:50:35;;;;;;;1.92;1.42;;;;;;;2.34;100.00;97608.53;5049991;28;20087;-53
2024/03/01 06:53:03;;;;;;;2.10;1.90;;;;;;;2.27;100.00;97624.81;5049071;28;20402;-57
2024/03/01 06:55:30;;;;;;;3.00;2.45;;;;;;;2.21;100.00;97616.16;5049070;28;20056;-57
2024/03/01 06:57:58;;;;;;;2.92;2.38;;;;;;;2.11;100.00;97626.91;5037174;28;20045;-56
2024/03/01 07:00:25;;;;;;;4.60;3.05;;;;;;;2.06;100.00;97627.22;5047430;28;20049;-53
2024/03/01 07:02:53;;;;;;;4.32;3.00;;;;;;;2.04;100.00;97626.81;5048265;28;20056;-56
2024/03/01 07:05:21;;;;;;;5.43;3.35;;;;;;;2.01;100.00;97628.31;5049230;28;20506;-54
2024/03/01 07:07:49;;;;;;;5.10;3.28;;;;;;;1.96;100.00;97631.31;5048751;28;20048;-53
2024/03/01 07:10:17;;;;;;;4.07;3.15;;;;;;;1.94;100.00;97627.38;5045348;28;20049;-56
2024/03/01 07:12:44;;;;;;;4.10;3.22;;;;;;;1.94;100.00;97636.38;5041217;28;20049;-50
2024/03/01 07:15:12;;;;;;;5.22;3.55;;;;;;;1.95;100.00;97631.69;5043375;28;20037;-51
2024/03/01 07:17:40;;;;;;;4.75;3.35;;;;;;;1.93;100.00;97642.19;5037594;28;20426;-55
2024/03/01 07:20:07;;;;;;;8.48;4.03;;;;;;;1.92;100.00;97641.41;5048033;28;20144;-55
2024/03/01 07:22:35;;;;;;;7.00;4.25;;;;;;;1.92;100.00;97638.66;5039338;28;20048;-57
2024/03/01 07:25:03;;;;;;;7.60;3.63;;;;;;;1.89;100.00;97638.59;5041577;28;20044;-56
2024/03/01 07:27:30;;;;;;;6.90;3.55;;;;;;;1.91;100.00;97639.06;5039060;28;20415;-52
2024/03/01 07:29:58;;;;;;;5.07;3.58;;;;;;;1.86;100.00;97634.66;5047723;28;20056;-56
2024/03/01 07:32:25;;;;;;;35.90;6.85;;;;;;;1.81;100.00;97633.03;5048436;28;20064;-55
2024/03/01 07:34:53;;;;;;;7.88;3.58;;;;;;;1.83;100.00;97636.19;5038749;28;20038;-55
2024/03/01 07:37:20;;;;;;;5.78;4.03;;;;;;;1.84;100.00;97653.34;5025963;28;20062;-52
2024/03/01 07:39:48;;;;;;;9.23;4.80;;;;;;;1.85;100.00;97661.16;5047482;28;20041;-53
2024/03/01 07:42:15;;;;;;;18.38;9.18;;;;;;;1.84;100.00;97651.41;5052131;28;20052;-57
2024/03/01 07:44:42;;;;;;;9.63;4.80;;;;;;;1.87;100.00;97655.34;5068905;28;20056;-56
2024/03/01 07:47:10;;;;;;;6.55;4.45;;;;;;;1.89;100.00;97658.50;5054620;28;20502;-50
2024/03/01 07:49:37;;;;;;;10.73;5.00;;;;;;;1.87;100.00;97655.34;5047464;28;20057;-52
2024/03/01 07:52:05;;;;;;;8.00;5.03;;;;;;;1.82;100.00;97651.00;5046009;28;20045;-52
2024/03/01 07:54:32;;;;;;;8.43;4.82;;;;;;;1.84;100.00;97656.84;5041185;28;20495;-51
2024/03/01 07:56:59;;;;;;;7.28;4.57;;;;;;;1.84;100.00;97654.13;5015537;28;20049;-56
2024/03/01 07:59:27;;;;;;;7.93;4.72;;;;;;;1.80;100.00;97653.25;5060015;28;20056;-52
2024/03/01 08:01:55;;;;;;;7.72;4.38;;;;;;;1.84;100.00;97656.06;5036297;28;20048;-53
2024/03/01 08:04:22;;;;;;;8.70;5.03;;;;;;;1.81;100.00;97663.03;5045158;28;20050;-53
2024/03/01 08:06:50;;;;;;;7.20;4.53;;;;;;;1.77;100.00;97656.72;5046466;28;20048;-54
2024/03/01 08:09:22;;;;;;;9.00;4.95;;;;;;;1.78;100.00;97669.22;5054508;28;20503;-53
2024/03/01 08:11:50;;;;;;;7.03;4.40;;;;;;;1.78;100.00;97658.31;5035201;28;20045;-56
2024/03/01 08:14:33;;;;;;;9.82;4.38;;;;;;;1.79;100.00;97665.34;5047677;28;20041;-57
2024/03/01 08:17:01;;;;;;;6.35;3.85;;;;;;;1.76;100.00;97666.06;5030306;28;20499;-57
2024/03/01 08:19:38;;;;;;;8.20;4.93;;;;;;;1.77;100.00;97667.63;5028070;28;20057;-57
2024/03/01 08:22:20;;;;;;;8.75;5.07;;;;;;;1.80;100.00;97661.44;5049727;28;20059;-57
2024/03/01 08:24:49;;;;;;;7.95;4.95;;;;;;;1.84;100.00;97662.31;5048736;28;20045;-55
2024/03/01 08:27:22;;;;;;;8.68;4.65;;;;;;;1.80;100.00;97656.00;5047173;28;20045;-58
2024/03/01 08:29:51;;;;;;;12.85;4.95;;;;;;;1.76;100.00;97666.06;5045695;28;20494;-59
2024/03/01 08:32:40;;;;;;;7.78;4.85;;;;;;;1.78;100.00;97668.41;5045333;28;20240;-56
2024/03/01 08:35:14;;;;;;;8.55;5.25;;;;;;;1.79;100.00;97657.16;5038101;28;20045;-57
2024/03/01 08:37:42;;;;;;;8.95;5.25;;;;;;;1.86;100.00;97653.75;5036275;28;20532;-59
2024/03/01 08:40:51;;;;;;;7.45;4.85;;;;;;;1.84;100.00;97645.94;5046505;28;20053;-55
2024/03/01 08:43:19;;;;;;;6.13;4.20;;;;;;;1.81;100.00;97654.06;5033519;28;20048;-55
2024/03/01 08:45:46;;;;;;;26.10;11.02;;;;;;;1.74;100.00;97651.22;5046143;28;20044;-57
2024/03/01 08:48:20;;;;;;;15.32;8.75;;;;;;;1.72;100.00;97637.94;5047018;28;20052;-52
2024/03/01 08:50:51;;;;;;;9.07;5.45;;;;;;;1.73;100.00;97636.00;5030048;28;20045;-54
2024/03/01 08:53:40;;;;;;;6.23;3.50;;;;;;;1.69;100.00;97627.78;5044456;28;20048;-57
2024/03/01 08:56:15;;;;;;;10.77;5.07;;;;;;;1.65;100.00;97632.34;5041107;28;20041;-55
2024/03/01 08:58:43;;;;;;;9.35;4.43;;;;;;;1.64;100.00;97613.66;5043584;28;20056;-56
2024/03/01 09:01:43;;;;;;;4.43;3.28;;;;;;;1.51;100.00;97604.81;5041111;28;20076;-58
2024/03/01 09:04:18;;;;;;;9.02;4.13;;;;;;;1.44;100.00;97599.25;5040225;28;20049;-55
2024/03/01 09:07:09;;;;;;;9.57;4.60;;;;;;;1.39;100.00;97598.75;5043249;28;20403;-57
2024/03/01 09:09:36;;;;;;;10.25;4.32;;;;;;;1.36;100.00;97597.53;5038019;28;20406;-56
2024/03/01 09:12:19;;;;;;;10.60;5.65;;;;;;;1.34;100.00;97594.41;5027998;28;20041;-54
2024/03/01 09:14:50;;;;;;;7.53;5.07;;;;;;;1.34;100.00;97590.88;5044469;28;20639;-57
2024/03/01 09:17:18;;;;;;;8.88;4.43;;;;;;;1.38;100.00;97595.25;5046030;28;20388;-57
2024/03/01 09:19:47;;;;;;;5.70;2.90;;;;;;;1.44;100.00;97593.00;5040726;28;20060;-54
2024/03/01 09:22:16;;;;;;;6.95;3.75;;;;;;;1.47;100.00;97582.19;5039850;28;20053;-58
2024/03/01 09:24:44;;;;;;;7.72;4.72;;;;;;;1.46;100.00;97572.41;5051934;28;20060;-58
2024/03/01 09:27:25;;;;;;;5.55;3.63;;;;;;;1.45;100.00;97573.59;5057943;28;20493;-58
2024/03/01 09:29:52;;;;;;;4.95;3.17;;;;;;;1.44;100.00;97574.72;5053970;28;20063;-59
2024/03/01 09:32:19;;;;;;;5.53;3.28;;;;;;;1.42;100.00;97568.84;5045403;28;20571;-56
2024/03/01 09:34:47;;;;;;;10.20;4.80;;;;;;;1.41;100.00;97572.72;5045693;28;20045;-59
2024/03/01 09:37:19;;;;;;;6.75;3.42;;;;;;;1.39;100.00;97575.03;5047293;28;20495;-60
2024/03/01 09:39:47;;;;;;;10.00;4.80;;;;;;;1.36;100.00;97553.94;5056074;28;20537;-59
2024/03/01 09:42:44;;;;;;;10.85;4.70;;;;;;;1.35;100.00;97563.25;5049109;28;20055;-55
2024/03/01 09:45:53;;;;;;;8.45;4.70;;;;;;;1.40;100.00;97576.63;5042854;28;21353;-59
2024/03/01 09:48:46;;;;;;;6.93;5.30;;;;;;;1.44;100.00;97568.47;5045601;28;20049;-57
2024/03/01 09:51:22;;;;;;;6.47;3.72;;;;;;;1.43;100.00;97575.09;5036481;28;20057;-59
2024/03/01 09:54:14;;;;;;;5.10;3.17;;;;;;;1.43;100.00;97559.50;5052332;28;20080;-56
2024/03/01 09:57:31;;;;;;;4.90;2.47;;;;;;;1.43;100.00;97564.19;5039099;28;20045;-57
2024/03/01 10:00:11;;;;;;;16.05;7.85;;;;;;;1.44;100.00;97579.38;4964076;28;20525;-55
2024/03/01 10:03:03;;;;;;;14.65;5.97;;;;;;;1.44;100.00;97568.47;5029838;28;20061;-63
2024/03/01 10:05:37;;;;;;;7.90;3.30;;;;;;;1.44;100.00;97565.75;5034755;28;20064;-60
2024/03/01 10:08:28;;;;;;;5.97;3.60;;;;;;;1.45;100.00;97557.22;5043035;28;20048;-60
2024/03/01 10:11:36;;;;;;;6.30;3.30;;;;;;;1.46;100.00;97563.44;5045524;28;20869;-61
2024/03/01 10:14:33;;;;;;;5.80;3.63;;;;;;;1.41;100.00;97559.09;5052247;28;20491;-60
2024/03/01 10:17:07;;;;;;;4.88;3.20;;;;;;;1.40;100.00;97565.72;5043125;28;20046;-61
2024/03/01 10:20:01;;;;;;;6.22;3.80;;;;;;;1.41;100.00;97547.41;5046295;28;20059;-60
2024/03/01 10:23:06;;;;;;;5.93;3.58;;;;;;;1.42;100.00;97557.16;5050304;28;20049;-59
2024/03/01 10:26:15;;;;;;;8.30;5.15;;;;;;;1.43;100.00;97559.50;5041171;28;20057;-60
2024/03/01 10:28:48;;;;;;;8.07;4.50;;;;;;;1.47;100.00;97565.81;4975510;28;20049;-60
2024/03/01 10:31:31;;;;;;;7.30;4.40;;;;;;;1.50;100.00;97558.88;5036222;28;20060;-58
2024/03/01 10:34:13;;;;;;;8.25;4.70;;;;;;;1.50;100.00;97565.09;5045608;28;20943;-57
2024/03/01 10:36:51;;;;;;;12.63;6.80;;;;;;;1.50;100.00;97558.88;5040576;28;20049;-54
2024/03/01 10:39:37;;;;;;;7.47;5.22;;;;;;;1.49;100.00;97579.09;5049856;28;20053;-54
2024/03/01 10:42:16;;;;;;;8.77;4.90;;;;;;;1.51;100.00;97566.66;5046667;28;20056;-54
2024/03/01 10:45:04;;;;;;;11.45;5.22;;;;;;;1.56;100.00;97566.34;5046785;28;20043;-57
2024/03/01 10:47:33;;;;;;;8.70;4.40;;;;;;;1.65;100.00;97553.28;5038940;28;20042;-54
2024/03/01 10:50:25;;;;;;;9.60;4.43;;;;;;;1.76;100.00;97559.72;5044385;28;20049;-54
2024/03/01 10:52:58;;;;;;;11.80;5.18;;;;;;;1.81;100.00;97564.06;5045091;28;20517;-54
2024/03/01 10:55:33;;;;;;;18.80;6.55;;;;;;;1.85;100.00;97565.69;5043251;28;20414;-56
2024/03/01 10:58:13;;;;;;;8.90;5.80;;;;;;;1.84;100.00;97566.84;5049120;28;20045;-53
2024/03/01 11:00:50;;;;;;;6.57;4.30;;;;;;;1.82;100.00;97560.19;5038953;28;20099;-55
2024/03/01 11:03:40;;;;;;;12.52;6.18;;;;;;;1.80;100.00;97568.72;5046953;28;20045;-57
2024/03/01 11:06:22;;;;;;;10.82;4.57;;;;;;;1.81;100.00;97564.06;5050604;28;20068;-56
2024/03/01 11:08:55;;;;;;;11.30;3.88;;;;;;;1.84;100.00;97569.59;5021754;28;20041;-57
2024/03/01 11:12:12;;;;;;;9.35;3.22;;;;;;;2.06;100.00;97576.16;5040363;28;20538;-55
2024/03/01 11:14:48;;;;;;;15.52;3.28;;;;;;;2.18;100.00;97570.50;4975354;28;20495;-57
2024/03/01 11:17:25;;;;;;;12.63;2.38;;;;;;;2.31;100.00;97577.31;5032344;28;20049;-56
2024/03/01 11:19:58;;;;;;;16.27;2.42;;;;;;;2.40;100.00;97596.16;5035186;28;20041;-58
2024/03/01 11:22:29;;;;;;;7.43;1.52;;;;;;;2.37;100.00;97588.72;5045481;28;20477;-57
2024/03/01 11:25:16;;;;;;;5.97;1.10;;;;;;;2.38;100.00;97587.56;5042328;28;20503;-56
2024/03/01 11:27:52;;;;;;;8.85;1.70;;;;;;;2.43;100.00;97589.97;5036894;28;20041;-57
2024/03/01 11:30:23;;;;;;;10.18;1.45;;;;;;;2.42;100.00;97591.13;5047646;28;20045;-54
2024/03/01 11:33:01;;;;;;;7.07;1.08;;;;;;;2.40;100.00;97598.91;5058447;28;20056;-57
2024/03/01 11:35:43;;;;;;;7.45;0.82;;;;;;;2.40;100.00;97583.31;5060764;28;20438;-54
2024/03/01 11:38:32;;;;;;;11.75;1.58;;;;;;;2.45;100.00;97583.00;5048560;28;20048;-57
2024/03/01 11:41:18;;;;;;;11.13;1.02;;;;;;;2.50;100.00;97587.34;5060896;28;20060;-56
2024/03/01 11:44:08;;;;;;;10.32;2.78;;;;;;;2.56;100.00;97566.75;5053655;28;20059;-57
2024/03/01 11:46:50;;;;;;;0.00;0.00;;;;;;;2.60;100.00;97577.69;5047520;28;20550;-55
2024/03/01 11:49:20;;;;;;;0.00;0.00;;;;;;;2.62;100.00;97580.88;5042434;28;20056;-60
2024/03/01 11:52:23;;;;;;;0.00;0.00;;;;;;;2.62;100.00;97575.41;5047886;28;20045;-55
2024/03/01 11:55:21;;;;;;;0.00;0.00;;;;;;;2.60;100.00;97578.50;5054586;28;20056;-58
2024/03/01 11:57:57;;;;;;;0.00;0.00;;;;;;;2.59;100.00;97593.31;5039319;28;20044;-50